Time;durP1;ratioP1;P1;durP2;ratioP2;P2;SDS_P1;SDS_P2;PMS_P1;PMS_P2;Temp;Humidity;BMP_temperature;BMP_pressure;BME280_temperature;BME280_humidity;BME280_pressure;Samples;Min_cycle;Max_cycle;Signal;HPM_P1;HPM_P2
2022/02/06 00:03:23;;;;;;;2.35;1.30;;;;;;;;;;19895468;29;20054;-59
2022/02/06 00:13:25;;;;;;;4.13;0.95;;;;;;;;;;19895067;29;20051;-59
2022/02/06 00:23:29;;;;;;;2.78;1.30;;;;;;;;;;19893844;29;20456;-57
2022/02/06 00:43:33;;;;;;;2.72;1.00;;;;;;;;;;19894020;29;20504;-58
2022/02/06 00:53:35;;;;;;;2.85;1.10;;;;;;;;;;19892952;29;20515;-57
2022/02/06 01:03:37;;;;;;;4.25;1.90;;;;;;;;;;19891805;29;20054;-56
2022/02/06 01:14:05;;;;;;;4.65;1.20;;;;;;;;;;19890262;29;20055;-57
2022/02/06 01:24:14;;;;;;;4.65;1.27;;;;;;;;;;19890084;29;20512;-57
2022/02/06 01:34:22;;;;;;;3.58;1.30;;;;;;;;;;19889819;29;20107;-57
2022/02/06 02:26:26;;;;;;;2.20;1.30;;;;;;;;;;19892904;29;20058;-56
2022/02/06 02:46:39;;;;;;;2.88;1.55;;;;;;;;;;19901847;29;20057;-55
2022/02/06 02:56:47;;;;;;;2.38;1.27;;;;;;;;;;19900004;29;20070;-56
2022/02/06 03:06:50;;;;;;;5.25;1.38;;;;;;;;;;19899387;29;20058;-55
2022/02/06 03:17:02;;;;;;;4.50;1.20;;;;;;;;;;19899573;29;20059;-57
2022/02/06 03:27:05;;;;;;;5.05;1.67;;;;;;;;;;19897997;29;20051;-55
2022/02/06 03:37:08;;;;;;;1.83;1.10;;;;;;;;;;19896465;29;20065;-57
2022/02/06 03:47:20;;;;;;;;;;;;;;;;;;19897298;29;20103;-56
2022/02/06 03:57:22;;;;;;;1.80;1.08;;;;;;;;;;19896185;29;19929;-57
2022/02/06 04:07:23;;;;;;;2.60;1.17;;;;;;;;;;19895459;29;20058;-57
2022/02/06 04:17:37;;;;;;;2.25;1.10;;;;;;;;;;19894309;29;20141;-57
2022/02/06 04:27:45;;;;;;;2.60;0.90;;;;;;;;;;19893672;29;20111;-57
2022/02/06 04:38:23;;;;;;;3.33;1.17;;;;;;;;;;19892878;29;20112;-57
2022/02/06 05:30:48;;;;;;;4.03;1.42;;;;;;;;;;19890365;29;20559;-56
2022/02/06 05:40:54;;;;;;;3.03;1.40;;;;;;;;;;19889830;29;20135;-56
2022/02/06 05:50:59;;;;;;;;;;;;;;;;;;19890448;29;20059;-57
2022/02/06 06:01:01;;;;;;;2.13;1.38;;;;;;;;;;19896997;29;19928;-56
2022/02/06 06:11:03;;;;;;;2.60;1.38;;;;;;;;;;19903270;29;20258;-56
2022/02/06 06:21:05;;;;;;;2.97;1.27;;;;;;;;;;19902830;29;20500;-56
2022/02/06 06:31:06;;;;;;;1.73;1.13;;;;;;;;;;19901918;29;20082;-57
2022/02/06 06:41:28;;;;;;;2.75;1.35;;;;;;;;;;19901442;29;20058;-57
2022/02/06 06:51:34;;;;;;;;;;;;;;;;;;19900799;29;20088;-58
2022/02/06 07:01:46;;;;;;;5.22;1.92;;;;;;;;;;19900540;29;20286;-58
2022/02/06 07:11:51;;;;;;;8.38;2.83;;;;;;;;;;19898459;29;20143;-56
2022/02/06 07:21:52;;;;;;;5.75;1.60;;;;;;;;;;19898728;29;20504;-57
2022/02/06 07:31:57;;;;;;;3.35;1.45;;;;;;;;;;19897699;29;20051;-57
2022/02/06 07:41:58;;;;;;;4.30;1.95;;;;;;;;;;19896975;29;20400;-57
2022/02/06 07:52:01;;;;;;;2.78;1.65;;;;;;;;;;19879717;29;20059;-56
2022/02/06 08:02:04;;;;;;;3.95;1.83;;;;;;;;;;19894976;29;20062;-57
2022/02/06 08:12:06;;;;;;;22.60;3.60;;;;;;;;;;19894330;29;20059;-56
2022/02/06 08:22:08;;;;;;;8.95;3.20;;;;;;;;;;19893339;29;20120;-57
2022/02/06 08:32:10;;;;;;;5.00;1.95;;;;;;;;;;19893268;29;20569;-57
2022/02/06 08:42:13;;;;;;;5.22;1.73;;;;;;;;;;19892188;29;20082;-56
2022/02/06 08:52:15;;;;;;;4.53;2.20;;;;;;;;;;19891958;29;20055;-58
2022/02/06 09:02:17;;;;;;;5.18;2.47;;;;;;;;;;19877181;29;20409;-57
2022/02/06 09:12:19;;;;;;;6.05;2.15;;;;;;;;;;19815057;30;20059;-57
2022/02/06 09:22:22;;;;;;;4.88;1.90;;;;;;;;;;19814770;30;20091;-56
2022/02/06 09:42:29;;;;;;;6.05;2.53;;;;;;;;;;19814599;30;20110;-57
2022/02/06 09:52:31;;;;;;;3.95;2.22;;;;;;;;;;19813840;30;20064;-57
2022/02/06 10:02:36;;;;;;;4.07;1.35;;;;;;;;;;19813804;30;20055;-56
2022/02/06 10:12:40;;;;;;;2.97;0.90;;;;;;;;;;19813468;30;20067;-56
2022/02/06 10:22:52;;;;;;;3.78;1.20;;;;;;;;;;19813122;29;20121;-57
2022/02/06 10:32:55;;;;;;;8.48;3.50;;;;;;;;;;19814014;30;20104;-57
2022/02/06 10:42:57;;;;;;;2.80;1.20;;;;;;;;;;19796902;29;20143;-57
2022/02/06 10:53:09;;;;;;;3.13;1.20;;;;;;;;;;19825691;30;20534;-56
2022/02/06 11:03:22;;;;;;;17.67;7.47;;;;;;;;;;19824451;30;20051;-57
2022/02/06 11:13:24;;;;;;;5.63;1.73;;;;;;;;;;19824211;30;20114;-58
2022/02/06 11:23:40;;;;;;;6.78;2.50;;;;;;;;;;19822804;29;20489;-57
2022/02/06 11:33:42;;;;;;;5.28;1.65;;;;;;;;;;19822201;30;20059;-58
2022/02/06 11:53:46;;;;;;;3.40;1.60;;;;;;;;;;19820850;30;20101;-58
2022/02/06 12:03:53;;;;;;;1.70;1.08;;;;;;;;;;19820918;29;20115;-59
2022/02/06 12:14:32;;;;;;;3.22;1.55;;;;;;;;;;19819737;30;20096;-58
2022/02/06 12:24:38;;;;;;;6.82;1.70;;;;;;;;;;19431547;30;20163;-60
2022/02/06 12:45:04;;;;;;;3.70;1.65;;;;;;;;;;19444640;30;20519;-55
2022/02/06 12:55:07;;;;;;;3.38;1.60;;;;;;;;;;19587920;30;20066;-57
2022/02/06 13:05:13;;;;;;;4.50;2.13;;;;;;;;;;19815398;30;20056;-58
2022/02/06 13:15:41;;;;;;;8.10;3.05;;;;;;;;;;19815224;29;20059;-58
2022/02/06 13:35:59;;;;;;;7.13;2.22;;;;;;;;;;19814617;30;20459;-58
2022/02/06 13:46:04;;;;;;;8.52;2.85;;;;;;;;;;19814777;30;20055;-59
2022/02/06 13:56:13;;;;;;;3.85;1.60;;;;;;;;;;19813788;30;20062;-59
2022/02/06 14:06:25;;;;;;;3.00;2.15;;;;;;;;;;19813478;30;20606;-59
2022/02/06 14:16:27;;;;;;;4.75;2.15;;;;;;;;;;19813496;30;20071;-58
2022/02/06 14:26:31;;;;;;;4.20;2.58;;;;;;;;;;19824619;29;20097;-59
2022/02/06 14:36:33;;;;;;;6.25;3.25;;;;;;;;;;19827168;30;20420;-59
2022/02/06 14:46:37;;;;;;;6.55;2.97;;;;;;;;;;19826170;30;20450;-58
2022/02/06 14:56:39;;;;;;;7.28;3.67;;;;;;;;;;19823669;30;20059;-60
2022/02/06 15:06:42;;;;;;;6.90;3.33;;;;;;;;;;19823447;30;20051;-59
2022/02/06 15:16:45;;;;;;;8.32;3.13;;;;;;;;;;19806077;30;20481;-59
2022/02/06 15:26:47;;;;;;;6.88;3.13;;;;;;;;;;19822174;30;20055;-60
2022/02/06 15:36:52;;;;;;;8.43;3.47;;;;;;;;;;19821259;29;20063;-57
2022/02/06 15:46:54;;;;;;;7.60;4.07;;;;;;;;;;19821023;30;20138;-58
2022/02/06 15:56:55;;;;;;;5.65;3.72;;;;;;;;;;19819880;30;20067;-59
2022/02/06 16:06:57;;;;;;;9.95;4.20;;;;;;;;;;19803920;30;20047;-57
2022/02/06 16:16:59;;;;;;;11.45;3.75;;;;;;;;;;19818396;30;20150;-57
2022/02/06 16:27:01;;;;;;;5.53;3.67;;;;;;;;;;19818486;30;20500;-57
2022/02/06 16:37:03;;;;;;;7.15;3.95;;;;;;;;;;19818169;30;20066;-58
2022/02/06 16:47:09;;;;;;;6.05;3.00;;;;;;;;;;19817074;29;20086;-60
2022/02/06 16:57:11;;;;;;;8.77;4.78;;;;;;;;;;19816723;30;20083;-59
2022/02/06 17:07:13;;;;;;;8.70;3.85;;;;;;;;;;19800229;30;20104;-59
2022/02/06 17:17:15;;;;;;;21.20;11.70;;;;;;;;;;19816018;29;20063;-59
2022/02/06 17:27:19;;;;;;;6.93;3.92;;;;;;;;;;19814914;30;20112;-58
2022/02/06 17:37:22;;;;;;;8.10;4.10;;;;;;;;;;19814721;30;20058;-59
2022/02/06 17:47:24;;;;;;;12.10;7.35;;;;;;;;;;19814693;30;20083;-59
2022/02/06 17:57:25;;;;;;;8.23;4.70;;;;;;;;;;19820124;29;20090;-58
2022/02/06 18:07:27;;;;;;;10.57;5.20;;;;;;;;;;19829878;30;20067;-59
2022/02/06 18:17:30;;;;;;;9.48;5.25;;;;;;;;;;19827818;29;20051;-60
2022/02/06 18:27:32;;;;;;;11.25;5.75;;;;;;;;;;19827205;30;20056;-57
2022/02/06 18:37:34;;;;;;;13.45;5.93;;;;;;;;;;19826267;30;20051;-59
2022/02/06 18:47:37;;;;;;;12.85;6.22;;;;;;;;;;19825928;30;20104;-58
2022/02/06 18:57:42;;;;;;;12.73;6.68;;;;;;;;;;19825363;30;20439;-58
2022/02/06 19:07:44;;;;;;;12.52;6.18;;;;;;;;;;19808821;29;20051;-58
2022/02/06 19:17:46;;;;;;;29.05;14.57;;;;;;;;;;19824445;29;20063;-58
2022/02/06 19:27:52;;;;;;;14.27;6.32;;;;;;;;;;19807019;30;20062;-59
2022/02/06 19:37:54;;;;;;;9.13;3.92;;;;;;;;;;19824625;30;20051;-58
2022/02/06 19:47:56;;;;;;;9.30;4.63;;;;;;;;;;19822168;30;20059;-59
2022/02/06 19:57:58;;;;;;;10.70;5.85;;;;;;;;;;19821990;30;20066;-61
2022/02/06 20:08:00;;;;;;;6.88;3.95;;;;;;;;;;19821631;30;20504;-60
2022/02/06 20:18:02;;;;;;;8.07;4.63;;;;;;;;;;19819724;29;20120;-57
2022/02/06 20:28:04;;;;;;;4.72;2.55;;;;;;;;;;19820155;30;20060;-58
2022/02/06 20:38:06;;;;;;;12.32;7.63;;;;;;;;;;19819020;30;20108;-58
2022/02/06 20:48:07;;;;;;;8.05;3.58;;;;;;;;;;19817996;30;20417;-58
2022/02/06 20:58:10;;;;;;;11.02;6.03;;;;;;;;;;19800992;30;20179;-59
2022/02/06 21:08:12;;;;;;;14.32;8.43;;;;;;;;;;19817126;30;20056;-57
2022/02/06 21:18:14;;;;;;;12.85;4.60;;;;;;;;;;19815703;29;20058;-60
2022/02/06 21:28:18;;;;;;;10.95;5.57;;;;;;;;;;19798876;30;20092;-58
2022/02/06 21:38:21;;;;;;;6.07;3.13;;;;;;;;;;19815630;30;20134;-58
2022/02/06 21:48:23;;;;;;;12.13;6.65;;;;;;;;;;19799567;30;20098;-59
2022/02/06 21:58:25;;;;;;;27.33;16.88;;;;;;;;;;19798487;30;20087;-59
2022/02/06 22:29:15;;;;;;;10.38;5.22;;;;;;;;;;19813722;30;20063;-59
2022/02/06 22:39:17;;;;;;;8.82;4.95;;;;;;;;;;19813879;29;20051;-58
2022/02/06 22:49:20;;;;;;;5.78;3.28;;;;;;;;;;19826810;30;20062;-60
2022/02/06 22:59:22;;;;;;;8.90;3.47;;;;;;;;;;19826692;30;20059;-58
2022/02/06 23:09:25;;;;;;;6.50;3.60;;;;;;;;;;19825540;30;20142;-59
2022/02/06 23:19:28;;;;;;;10.02;4.20;;;;;;;;;;19824327;29;20146;-58
2022/02/06 23:29:30;;;;;;;13.52;6.75;;;;;;;;;;19823503;30;20091;-58
2022/02/06 23:39:32;;;;;;;11.60;4.97;;;;;;;;;;19823099;30;20055;-59
2022/02/06 23:49:34;;;;;;;8.18;4.15;;;;;;;;;;19823570;30;20059;-59
2022/02/06 23:59:50;;;;;;;11.02;5.15;;;;;;;;;;19821125;29;20531;-58
